createdAt,value
2023-04-25T00:00:58.993Z,8.7206
2023-04-25T00:01:59.478Z,8.7146
2023-04-25T00:03:00.356Z,8.7088
2023-04-25T00:04:01.101Z,8.7253
2023-04-25T00:05:01.990Z,8.7292
2023-04-25T00:06:02.503Z,8.7713
2023-04-25T00:07:02.982Z,8.7708
2023-04-25T00:08:03.336Z,8.7453
2023-04-25T00:09:03.802Z,8.7052
2023-04-25T00:10:04.148Z,8.7145
2023-04-25T00:11:04.545Z,8.7053
2023-04-25T00:12:04.916Z,8.6953
2023-04-25T00:13:05.419Z,8.6643
2023-04-25T00:14:05.996Z,8.6374
2023-04-25T00:15:06.374Z,8.6201
2023-04-25T00:16:06.832Z,8.6461
2023-04-25T00:17:07.274Z,8.6322
2023-04-25T00:18:07.779Z,8.6181
2023-04-25T00:19:08.561Z,8.6050
2023-04-25T00:20:09.049Z,8.5797
2023-04-25T00:21:09.394Z,8.5436
2023-04-25T00:22:09.761Z,8.5451
2023-04-25T00:23:10.186Z,8.5179
2023-04-25T00:24:10.550Z,8.5235
2023-04-25T00:25:10.947Z,8.4880
2023-04-25T00:26:11.333Z,8.5019
2023-04-25T00:27:11.701Z,8.4847
2023-04-25T00:28:12.058Z,8.4787
2023-04-25T00:29:12.441Z,8.4500
2023-04-25T00:30:12.864Z,8.4352
2023-04-25T00:31:13.312Z,8.4267
2023-04-25T00:32:13.875Z,8.4147
2023-04-25T00:33:14.306Z,8.3664
2023-04-25T00:34:14.837Z,8.3378
2023-04-25T00:35:15.248Z,8.3214
2023-04-25T00:36:15.723Z,8.2790
2023-04-25T00:37:16.149Z,8.2590
2023-04-25T00:38:16.568Z,8.2512
2023-04-25T00:39:17.026Z,8.2324
2023-04-25T00:40:17.407Z,8.2390
2023-04-25T00:41:17.769Z,8.2687
2023-04-25T00:42:18.262Z,8.2822
2023-04-25T00:43:18.634Z,8.2860
2023-04-25T00:44:19.026Z,8.2916
2023-04-25T00:45:19.419Z,8.2859
2023-04-25T00:46:19.880Z,8.2920
2023-04-25T00:47:20.606Z,8.2704
2023-04-25T00:48:21.099Z,8.2579
2023-04-25T00:49:21.527Z,8.2399
2023-04-25T00:50:21.958Z,8.2057
2023-04-25T00:51:22.378Z,8.1721
2023-04-25T00:52:22.816Z,8.1554
2023-04-25T00:53:23.172Z,8.1403
2023-04-25T00:54:23.615Z,8.1133
2023-04-25T00:55:24.076Z,8.1440
2023-04-25T00:56:24.546Z,8.2085
2023-04-25T00:57:24.975Z,8.2610
2023-04-25T00:58:25.426Z,8.2243
2023-04-25T00:59:25.879Z,8.1915
2023-04-25T01:00:26.331Z,8.1603
2023-04-25T01:01:26.867Z,8.1215
2023-04-25T01:02:27.535Z,8.1189
2023-04-25T01:03:28.201Z,8.0746
2023-04-25T01:04:28.846Z,8.0643
2023-04-25T01:05:29.216Z,8.0894
2023-04-25T01:06:29.644Z,8.0858
2023-04-25T01:07:30.052Z,8.1360
2023-04-25T01:08:30.528Z,8.0965
2023-04-25T01:09:30.949Z,8.0596
2023-04-25T01:10:31.368Z,8.0512
2023-04-25T01:11:31.743Z,7.9546
2023-04-25T01:12:32.251Z,7.9311
2023-04-25T01:13:32.613Z,7.8861
2023-04-25T01:14:33.008Z,7.8626
2023-04-25T01:15:33.407Z,7.8587
2023-04-25T01:16:33.891Z,7.8292
2023-04-25T01:17:34.358Z,7.8843
2023-04-25T01:18:34.748Z,7.8610
2023-04-25T01:19:35.280Z,7.8271
2023-04-25T01:20:35.694Z,7.8527
2023-04-25T01:21:36.147Z,7.8354
2023-04-25T01:22:36.594Z,7.8385
2023-04-25T01:23:37.050Z,7.8664
2023-04-25T01:24:37.463Z,7.8700
2023-04-25T01:25:38.147Z,7.8703
2023-04-25T01:26:38.783Z,7.8592
2023-04-25T01:27:39.200Z,7.8565
2023-04-25T01:28:39.632Z,7.8433
2023-04-25T01:29:40.067Z,7.8298
2023-04-25T01:30:40.497Z,7.8243
2023-04-25T01:31:40.927Z,7.8294
2023-04-25T01:32:41.522Z,7.7835
2023-04-25T01:33:42.073Z,7.7730
2023-04-25T01:34:42.514Z,7.7538
2023-04-25T01:35:43.092Z,7.7367
2023-04-25T01:36:43.785Z,7.7356
2023-04-25T01:37:44.213Z,7.7333
2023-04-25T01:38:44.681Z,7.7474
2023-04-25T01:39:45.082Z,7.7236
2023-04-25T01:40:45.550Z,7.7144
2023-04-25T01:41:45.955Z,7.7054
2023-04-25T01:42:46.373Z,7.6978
2023-04-25T01:43:46.794Z,7.6785
2023-04-25T01:44:47.164Z,7.6583
2023-04-25T01:45:47.621Z,7.6345
2023-04-25T01:46:48.070Z,7.6421
2023-04-25T01:47:48.617Z,7.6608
2023-04-25T01:48:49.041Z,7.6631
2023-04-25T01:49:49.478Z,7.6054
2023-04-25T01:50:49.936Z,7.6191
2023-04-25T01:51:50.354Z,7.6034
2023-04-25T01:52:50.779Z,7.5964
2023-04-25T01:53:51.384Z,7.5317
2023-04-25T01:54:52.027Z,7.5466
2023-04-25T01:55:52.541Z,7.5484
2023-04-25T01:56:52.986Z,7.5577
2023-04-25T01:57:53.472Z,7.5273
2023-04-25T01:58:54.245Z,7.4882
2023-04-25T01:59:54.802Z,7.4785
2023-04-25T02:00:55.217Z,7.4613
2023-04-25T02:01:56.024Z,7.4319
2023-04-25T02:02:56.599Z,7.4578
2023-04-25T02:03:57.592Z,7.4045
2023-04-25T02:04:58.718Z,7.3916
2023-04-25T02:05:59.231Z,7.3473
2023-04-25T02:06:59.725Z,7.4382
2023-04-25T02:08:00.189Z,7.4159
2023-04-25T02:09:00.645Z,7.3840
2023-04-25T02:10:01.104Z,7.3620
2023-04-25T02:11:01.684Z,7.3558
2023-04-25T02:12:02.196Z,7.3820
2023-04-25T02:13:02.635Z,7.3709
2023-04-25T02:14:03.005Z,7.3355
2023-04-25T02:15:03.422Z,7.3191
2023-04-25T02:16:03.977Z,7.3698
2023-04-25T02:17:04.607Z,7.4130
2023-04-25T02:18:05.036Z,7.4376
2023-04-25T02:19:05.469Z,7.4113
2023-04-25T02:20:05.882Z,7.4019
2023-04-25T02:21:06.339Z,7.3963
2023-04-25T02:22:06.928Z,7.4234
2023-04-25T02:23:07.345Z,7.4597
2023-04-25T02:24:07.759Z,7.4772
2023-04-25T02:25:08.209Z,7.4853
2023-04-25T02:26:08.688Z,7.4769
2023-04-25T02:27:09.110Z,7.4984
2023-04-25T02:28:09.549Z,7.5477
2023-04-25T02:29:10.082Z,7.5742
2023-04-25T02:30:10.511Z,7.5532
2023-04-25T02:31:10.981Z,7.5458
2023-04-25T02:32:11.326Z,7.5473
2023-04-25T02:33:11.799Z,7.5267
2023-04-25T02:34:12.216Z,7.5238
2023-04-25T02:35:12.659Z,7.5306
2023-04-25T02:36:13.103Z,7.5052
2023-04-25T02:37:13.594Z,7.4958
2023-04-25T02:38:13.939Z,7.4448
2023-04-25T02:39:14.425Z,7.3812
2023-04-25T02:40:14.820Z,7.3559
2023-04-25T02:41:15.255Z,7.3621
2023-04-25T02:42:15.712Z,7.3636
2023-04-25T02:43:16.182Z,7.2906
2023-04-25T02:44:16.647Z,7.1924
2023-04-25T02:45:17.127Z,7.1913
2023-04-25T02:46:22.849Z,7.1967
2023-04-25T02:47:18.471Z,7.1749
2023-04-25T02:48:18.909Z,7.1725
2023-04-25T02:49:19.308Z,7.1640
2023-04-25T02:50:19.709Z,7.1247
2023-04-25T02:51:20.144Z,7.0874
2023-04-25T02:52:20.530Z,7.0929
2023-04-25T02:53:20.944Z,7.0848
2023-04-25T02:54:21.364Z,7.0873
2023-04-25T02:55:21.782Z,7.0746
2023-04-25T02:56:22.159Z,7.0962
2023-04-25T02:57:22.635Z,7.1024
2023-04-25T02:58:23.049Z,7.1349
2023-04-25T02:59:23.460Z,7.1481
2023-04-25T03:00:23.955Z,7.1498
2023-04-25T03:01:24.442Z,7.1552
2023-04-25T03:02:24.936Z,7.1411
2023-04-25T03:03:25.464Z,7.1422
2023-04-25T03:04:26.055Z,7.1171
2023-04-25T03:05:26.519Z,7.1190
2023-04-25T03:06:26.957Z,7.1365
2023-04-25T03:07:27.437Z,7.1288
2023-04-25T03:08:27.820Z,7.1478
2023-04-25T03:09:28.296Z,7.1343
2023-04-25T03:10:28.783Z,7.0992
2023-04-25T03:11:29.206Z,7.0939
2023-04-25T03:12:29.610Z,7.1376
2023-04-25T03:13:30.073Z,7.0999
2023-04-25T03:14:30.528Z,7.0911
2023-04-25T03:15:30.953Z,7.0863
2023-04-25T03:16:31.412Z,7.0867
2023-04-25T03:17:31.805Z,7.0448
2023-04-25T03:18:32.177Z,7.0878
2023-04-25T03:19:32.588Z,7.1544
2023-04-25T03:20:32.988Z,7.2353
2023-04-25T03:21:33.437Z,7.3054
2023-04-25T03:22:33.857Z,7.3537
2023-04-25T03:23:34.312Z,7.3581
2023-04-25T03:24:34.786Z,7.3851
2023-04-25T03:25:35.230Z,7.3778
2023-04-25T03:26:35.622Z,7.3784
2023-04-25T03:27:36.065Z,7.3898
2023-04-25T03:28:36.498Z,7.3244
2023-04-25T03:29:36.922Z,7.2679
2023-04-25T03:30:37.370Z,7.1368
2023-04-25T03:31:37.870Z,7.0987
2023-04-25T03:32:38.375Z,7.0503
2023-04-25T03:33:38.833Z,7.0073
2023-04-25T03:34:39.328Z,6.9165
2023-04-25T03:35:39.733Z,6.8034
2023-04-25T03:36:41.697Z,6.6842
2023-04-25T03:37:42.533Z,6.5927
2023-04-25T03:38:42.956Z,6.5182
2023-04-25T03:39:43.441Z,6.5019
2023-04-25T03:40:43.937Z,6.4583
2023-04-25T03:41:44.434Z,6.4330
2023-04-25T03:42:45.099Z,6.4693
2023-04-25T03:43:45.743Z,6.4972
2023-04-25T03:44:46.202Z,6.4637
2023-04-25T03:45:46.733Z,6.4657
2023-04-25T03:46:47.758Z,6.4609
2023-04-25T03:47:48.275Z,6.4332
2023-04-25T03:48:48.752Z,6.3377
2023-04-25T03:49:49.186Z,6.2981
2023-04-25T03:50:49.600Z,6.2653
2023-04-25T03:51:50.015Z,6.2935
2023-04-25T03:52:50.448Z,6.2692
2023-04-25T03:53:51.067Z,6.2795
2023-04-25T03:54:51.944Z,6.2664
2023-04-25T03:55:52.378Z,6.2350
2023-04-25T03:56:52.786Z,6.1985
2023-04-25T03:57:53.223Z,6.1816
2023-04-25T03:58:53.666Z,6.2016
2023-04-25T03:59:54.018Z,6.1903
2023-04-25T04:00:54.436Z,6.1725
2023-04-25T04:01:54.834Z,6.1408
2023-04-25T04:02:55.438Z,6.1867
2023-04-25T04:03:56.297Z,6.1870
2023-04-25T04:04:57.676Z,6.1762
2023-04-25T04:05:58.513Z,6.1393
2023-04-25T04:06:58.948Z,6.1498
2023-04-25T04:07:59.451Z,6.1684
2023-04-25T04:08:59.925Z,6.1727
2023-04-25T04:10:00.405Z,6.1438
2023-04-25T04:11:00.840Z,6.1611
2023-04-25T04:12:01.303Z,6.1858
2023-04-25T04:13:01.749Z,6.0686
2023-04-25T04:14:02.241Z,6.0072
2023-04-25T04:15:02.680Z,6.0470
2023-04-25T04:16:03.174Z,6.0938
2023-04-25T04:17:03.627Z,6.0510
2023-04-25T04:18:04.100Z,6.0367
2023-04-25T04:19:04.585Z,6.0683
2023-04-25T04:20:05.039Z,5.9875
2023-04-25T04:21:05.493Z,5.8813
2023-04-25T04:22:06.152Z,5.8344
2023-04-25T04:23:06.616Z,5.8047
2023-04-25T04:24:07.028Z,5.8887
2023-04-25T04:25:07.634Z,5.9752
2023-04-25T04:26:08.075Z,6.0359
2023-04-25T04:27:08.492Z,6.1311
2023-04-25T04:28:08.956Z,6.2334
2023-04-25T04:29:09.345Z,6.3266
2023-04-25T04:30:09.780Z,6.3252
2023-04-25T04:31:10.228Z,6.3951
2023-04-25T04:32:10.907Z,6.4107
2023-04-25T04:33:11.409Z,6.3458
2023-04-25T04:34:11.826Z,6.3880
2023-04-25T04:35:12.235Z,6.4087
2023-04-25T04:36:12.896Z,6.4222
2023-04-25T04:37:13.344Z,6.4832
2023-04-25T04:38:13.839Z,6.4934
2023-04-25T04:39:14.359Z,6.4304
2023-04-25T04:40:14.828Z,6.3768
2023-04-25T04:41:15.294Z,6.4423
2023-04-25T04:42:15.780Z,6.4811
2023-04-25T04:43:16.260Z,6.4824
2023-04-25T04:44:16.734Z,6.5134
2023-04-25T04:45:17.274Z,6.5832
2023-04-25T04:46:17.807Z,6.5483
2023-04-25T04:47:18.349Z,6.6104
2023-04-25T04:48:18.816Z,6.5773
2023-04-25T04:49:20.161Z,6.6171
2023-04-25T04:50:20.704Z,6.6099
2023-04-25T04:51:21.184Z,6.7024
2023-04-25T04:52:21.697Z,6.7156
2023-04-25T04:53:22.206Z,6.7165
2023-04-25T04:54:22.679Z,6.7424
2023-04-25T04:55:23.187Z,6.7658
2023-04-25T04:56:23.663Z,6.8017
2023-04-25T04:57:24.183Z,6.8251
2023-04-25T04:58:24.774Z,6.8236
2023-04-25T04:59:25.261Z,6.8282
2023-04-25T05:00:29.644Z,6.8556
2023-04-25T05:01:28.996Z,6.8579
2023-04-25T05:02:29.609Z,6.8705
2023-04-25T05:03:30.399Z,6.9004
2023-04-25T05:04:31.066Z,6.9568
2023-04-25T05:05:31.639Z,6.9709
2023-04-25T05:06:32.178Z,6.9718
2023-04-25T05:07:32.743Z,6.9947
2023-04-25T05:08:33.295Z,7.0208
2023-04-25T05:09:33.761Z,6.9979
2023-04-25T05:10:34.280Z,7.0235
2023-04-25T05:11:34.775Z,7.0357
2023-04-25T05:12:37.038Z,7.0314
2023-04-25T05:13:37.978Z,7.0792
2023-04-25T05:14:38.545Z,7.0839
2023-04-25T05:15:39.006Z,7.1061
2023-04-25T05:16:39.633Z,7.1575
2023-04-25T05:17:40.272Z,7.1566
2023-04-25T05:18:40.854Z,7.1702
2023-04-25T05:19:41.387Z,7.1690
2023-04-25T05:20:41.857Z,7.1547
2023-04-25T05:21:42.358Z,7.1671
2023-04-25T05:22:42.887Z,7.1963
2023-04-25T05:23:43.453Z,7.2083
2023-04-25T05:24:43.958Z,7.1703
2023-04-25T05:25:44.438Z,7.1726
2023-04-25T05:26:44.896Z,7.1212
2023-04-25T05:27:45.385Z,7.0948
2023-04-25T05:28:45.837Z,7.0906
2023-04-25T05:29:46.286Z,7.1037
2023-04-25T05:30:46.755Z,7.1215
2023-04-25T05:31:47.219Z,7.1160
2023-04-25T05:32:47.700Z,7.1456
2023-04-25T05:33:48.354Z,7.1855
2023-04-25T05:34:49.054Z,7.1632
2023-04-25T05:35:49.497Z,7.1847
2023-04-25T05:36:49.998Z,7.2727
2023-04-25T05:37:50.465Z,7.3159
2023-04-25T05:38:50.925Z,7.2947
2023-04-25T05:39:51.425Z,7.3467
2023-04-25T05:40:51.873Z,7.3717
2023-04-25T05:41:52.319Z,7.3524
2023-04-25T05:42:52.779Z,7.3931
2023-04-25T05:43:56.122Z,7.3757
2023-04-25T05:44:55.628Z,7.4371
2023-04-25T05:45:56.142Z,7.4743
2023-04-25T05:46:56.603Z,7.5018
2023-04-25T05:47:57.392Z,7.4999
2023-04-25T05:48:58.180Z,7.5658
2023-04-25T05:49:58.817Z,7.6447
2023-04-25T05:50:59.343Z,7.7145
2023-04-25T05:51:59.856Z,7.7379
2023-04-25T05:53:00.342Z,7.7935
2023-04-25T05:54:01.403Z,7.7761
2023-04-25T05:55:01.856Z,7.8287
2023-04-25T05:56:02.338Z,7.8468
2023-04-25T05:57:02.844Z,7.8368
2023-04-25T05:58:03.258Z,7.8555
2023-04-25T05:59:03.741Z,7.8031
2023-04-25T06:00:04.258Z,7.8312
2023-04-25T06:01:04.697Z,7.8441
2023-04-25T06:02:05.196Z,7.8576
2023-04-25T06:03:05.776Z,7.8726
2023-04-25T06:04:06.714Z,7.8672
2023-04-25T06:05:07.802Z,7.8626
2023-04-25T06:06:08.448Z,7.8637
2023-04-25T06:07:08.929Z,7.8834
2023-04-25T06:08:09.413Z,7.8566
2023-04-25T06:09:09.903Z,7.8075
2023-04-25T06:10:10.385Z,7.7979
2023-04-25T06:11:10.864Z,7.7867
2023-04-25T06:12:11.367Z,7.7905
2023-04-25T06:13:11.812Z,7.7767
2023-04-25T06:14:12.307Z,7.7788
2023-04-25T06:15:24.348Z,7.7736
2023-04-25T06:16:13.735Z,7.7760
2023-04-25T06:17:14.257Z,7.7508
2023-04-25T06:18:14.691Z,7.7055
2023-04-25T06:19:15.179Z,7.6714
2023-04-25T06:20:15.667Z,7.6680
2023-04-25T06:21:16.160Z,7.6216
2023-04-25T06:22:16.676Z,7.5668
2023-04-25T06:23:17.139Z,7.5012
2023-04-25T06:24:17.644Z,7.4291
2023-04-25T06:25:18.155Z,7.3303
2023-04-25T06:26:18.623Z,7.2014
2023-04-25T06:27:19.198Z,7.1203
2023-04-25T06:28:19.669Z,7.0706
2023-04-25T06:29:20.139Z,7.0578
2023-04-25T06:30:20.604Z,6.9924
2023-04-25T06:31:21.084Z,6.8514
2023-04-25T06:32:21.571Z,6.6472
2023-04-25T06:33:22.028Z,6.4288
2023-04-25T06:34:22.565Z,6.3248
2023-04-25T06:35:23.171Z,6.2486
2023-04-25T06:36:23.671Z,6.1860
2023-04-25T06:37:24.100Z,6.0592
2023-04-25T06:38:24.601Z,5.8747
2023-04-25T06:39:25.090Z,5.8256
2023-04-25T06:40:25.604Z,5.7430
2023-04-25T06:41:26.076Z,5.6150
2023-04-25T06:42:26.569Z,5.5519
2023-04-25T06:43:27.026Z,5.5441
2023-04-25T06:44:27.574Z,5.5308
2023-04-25T06:45:28.044Z,5.5309
2023-04-25T06:46:28.642Z,5.5174
2023-04-25T06:47:29.184Z,5.4851
2023-04-25T06:48:29.705Z,5.4618
2023-04-25T06:49:30.238Z,5.4326
2023-04-25T06:50:30.797Z,5.4034
2023-04-25T06:51:31.311Z,5.4270
2023-04-25T06:52:31.737Z,5.4364
2023-04-25T06:53:32.211Z,5.4786
2023-04-25T06:54:32.721Z,5.4993
2023-04-25T06:55:33.224Z,5.5002
2023-04-25T06:56:33.712Z,5.5646
2023-04-25T06:57:34.197Z,5.6139
2023-04-25T06:58:34.683Z,5.5855
2023-04-25T06:59:35.160Z,5.5601
2023-04-25T07:00:35.633Z,5.5856
2023-04-25T07:01:36.122Z,5.5742
2023-04-25T07:02:36.692Z,5.5736
2023-04-25T07:03:37.388Z,5.5905
2023-04-25T07:04:38.134Z,5.5865
2023-04-25T07:05:38.608Z,5.6172
2023-04-25T07:06:39.068Z,5.6699
2023-04-25T07:07:39.512Z,5.6878
2023-04-25T07:08:39.961Z,5.6799
2023-04-25T07:09:40.478Z,5.7551
2023-04-25T07:10:40.984Z,5.7451
2023-04-25T07:11:41.419Z,5.7378
2023-04-25T07:12:41.919Z,5.7910
2023-04-25T07:13:42.408Z,5.7316
2023-04-25T07:14:42.913Z,5.7421
2023-04-25T07:15:43.377Z,5.7388
2023-04-25T07:16:43.939Z,5.7416
2023-04-25T07:17:44.445Z,5.6936
2023-04-25T07:18:44.911Z,5.7120
2023-04-25T07:19:45.412Z,5.7469
2023-04-25T07:20:45.971Z,5.7642
2023-04-25T07:21:46.374Z,5.7031
2023-04-25T07:22:46.857Z,5.6478
2023-04-25T07:23:47.368Z,5.6856
2023-04-25T07:24:47.866Z,5.6962
2023-04-25T07:25:48.446Z,5.7285
2023-04-25T07:26:48.925Z,5.7021
2023-04-25T07:27:49.426Z,5.7395
2023-04-25T07:28:50.076Z,5.7279
2023-04-25T07:29:50.729Z,5.7435
2023-04-25T07:30:51.230Z,5.7393
2023-04-25T07:31:51.715Z,5.7285
2023-04-25T07:32:52.303Z,5.7049
2023-04-25T07:33:52.770Z,5.6950
2023-04-25T07:34:53.275Z,5.7052
2023-04-25T07:35:53.772Z,5.7025
2023-04-25T07:36:54.201Z,5.6724
2023-04-25T07:37:54.694Z,5.6459
2023-04-25T07:38:55.154Z,5.6447
2023-04-25T07:39:55.648Z,5.6220
2023-04-25T07:40:56.118Z,5.6438
2023-04-25T07:41:56.598Z,5.6589
2023-04-25T07:42:57.096Z,5.6360
2023-04-25T07:43:57.587Z,5.6383
2023-04-25T07:44:58.089Z,5.6427
2023-04-25T07:45:58.581Z,5.6499
2023-04-25T07:46:59.020Z,5.7139
2023-04-25T07:47:59.583Z,5.7466
2023-04-25T07:49:00.032Z,5.7691
2023-04-25T07:50:00.585Z,5.7863
2023-04-25T07:51:01.037Z,5.7876
2023-04-25T07:52:01.567Z,5.7842
2023-04-25T07:53:02.044Z,5.8331
2023-04-25T07:54:02.525Z,5.8869
2023-04-25T07:55:03.018Z,5.9689
2023-04-25T07:56:03.526Z,6.0274
2023-04-25T07:57:04.006Z,6.0501
2023-04-25T07:58:04.490Z,6.0402
2023-04-25T07:59:04.962Z,6.0643
2023-04-25T08:00:05.466Z,6.0874
2023-04-25T08:01:05.940Z,6.1594
2023-04-25T08:02:06.412Z,6.2644
2023-04-25T08:03:07.055Z,6.3400
2023-04-25T08:04:07.995Z,6.3350
2023-04-25T08:05:09.019Z,6.3815
2023-04-25T08:06:10.087Z,6.3507
2023-04-25T08:07:10.769Z,6.3280
2023-04-25T08:08:11.234Z,6.3208
2023-04-25T08:09:11.656Z,6.3338
2023-04-25T08:10:12.352Z,6.3210
2023-04-25T08:11:12.940Z,6.3458
2023-04-25T08:12:13.465Z,6.3292
2023-04-25T08:13:13.921Z,6.4478
2023-04-25T08:14:14.405Z,6.5576
2023-04-25T08:15:14.893Z,6.6170
2023-04-25T08:16:15.435Z,6.6392
2023-04-25T08:17:16.019Z,6.6632
2023-04-25T08:18:17.681Z,6.7055
2023-04-25T08:19:18.377Z,6.8526
2023-04-25T08:20:18.874Z,6.8100
2023-04-25T08:21:19.370Z,6.8482
2023-04-25T08:22:19.810Z,6.9667
2023-04-25T08:23:20.302Z,6.9708
2023-04-25T08:24:20.776Z,6.9725
2023-04-25T08:25:21.292Z,6.9415
2023-04-25T08:26:21.797Z,6.9849
2023-04-25T08:27:22.330Z,6.9148
2023-04-25T08:28:22.802Z,6.9778
2023-04-25T08:29:23.238Z,7.1037
2023-04-25T08:30:23.775Z,7.1957
2023-04-25T08:31:24.349Z,7.2507
2023-04-25T08:32:24.877Z,7.3893
2023-04-25T08:33:25.408Z,7.5613
2023-04-25T08:34:25.932Z,7.6641
2023-04-25T08:35:26.622Z,7.7673
2023-04-25T08:36:38.654Z,7.9612
2023-04-25T08:37:28.064Z,8.0521
2023-04-25T08:38:28.538Z,8.0104
2023-04-25T08:39:29.096Z,8.0677
2023-04-25T08:40:29.767Z,8.1868
2023-04-25T08:41:30.435Z,8.0790
2023-04-25T08:42:30.889Z,7.9703
2023-04-25T08:43:32.018Z,7.8277
2023-04-25T08:44:32.719Z,7.6936
2023-04-25T08:45:33.326Z,7.6680
2023-04-25T08:46:34.126Z,7.5964
2023-04-25T08:47:34.621Z,7.5331
2023-04-25T08:48:35.039Z,7.4638
2023-04-25T08:49:35.551Z,7.4517
2023-04-25T08:50:36.082Z,7.4749
2023-04-25T08:51:36.557Z,7.5018
2023-04-25T08:52:37.021Z,7.5172
2023-04-25T08:53:38.521Z,7.4280
2023-04-25T08:54:41.043Z,7.4109
2023-04-25T08:55:39.704Z,7.3486
2023-04-25T08:56:40.174Z,7.3043
2023-04-25T08:57:40.701Z,7.3276
2023-04-25T08:58:41.252Z,7.3173
2023-04-25T08:59:41.815Z,7.2843
2023-04-25T09:00:42.266Z,7.2813
2023-04-25T09:01:42.772Z,7.3282
2023-04-25T09:02:43.361Z,7.3380
2023-04-25T09:03:44.074Z,7.3091
2023-04-25T09:04:44.637Z,7.2887
2023-04-25T09:05:45.197Z,7.3626
2023-04-25T09:06:45.795Z,7.3497
2023-04-25T09:07:47.357Z,7.4010
2023-04-25T09:08:49.027Z,7.3534
2023-04-25T09:09:49.650Z,7.3008
2023-04-25T09:10:50.577Z,7.3658
2023-04-25T09:11:51.064Z,7.4228
2023-04-25T09:12:51.930Z,7.4644
2023-04-25T09:13:52.993Z,7.5268
2023-04-25T09:14:53.734Z,7.5759
2023-04-25T09:15:54.268Z,7.6754
2023-04-25T09:16:54.684Z,7.6878
2023-04-25T09:17:55.495Z,7.7221
2023-04-25T09:18:56.259Z,7.7568
2023-04-25T09:19:56.757Z,7.7675
2023-04-25T09:21:01.957Z,7.7782
2023-04-25T09:21:58.273Z,7.9421
2023-04-25T09:22:58.802Z,7.9930
2023-04-25T09:23:59.289Z,8.1644
2023-04-25T09:24:59.923Z,8.1807
2023-04-25T09:26:00.506Z,8.1263
2023-04-25T09:27:00.980Z,8.1813
2023-04-25T09:28:01.444Z,8.1962
2023-04-25T09:29:01.897Z,8.2147
2023-04-25T09:30:02.369Z,8.2078
2023-04-25T09:31:02.896Z,8.2660
2023-04-25T09:32:03.339Z,8.3674
2023-04-25T09:33:03.871Z,8.4111
2023-04-25T09:34:04.603Z,8.4846
2023-04-25T09:35:05.624Z,8.6470
2023-04-25T09:36:06.154Z,8.6626
2023-04-25T09:37:06.659Z,8.9006
2023-04-25T09:38:07.279Z,8.9023
2023-04-25T09:39:08.226Z,8.9785
2023-04-25T09:40:08.803Z,8.9019
2023-04-25T09:41:09.308Z,8.8458
2023-04-25T09:42:09.868Z,8.6641
2023-04-25T09:43:10.381Z,8.6128
2023-04-25T09:44:10.890Z,8.7740
2023-04-25T09:45:11.373Z,8.7923
2023-04-25T09:46:11.969Z,8.7524
2023-04-25T09:47:12.475Z,9.1108
2023-04-25T09:48:12.936Z,9.1739
2023-04-25T09:49:13.365Z,8.8341
2023-04-25T09:50:13.826Z,8.9178
2023-04-25T09:51:14.314Z,8.8934
2023-04-25T09:52:14.895Z,8.7362
2023-04-25T09:53:15.394Z,8.5571
2023-04-25T09:54:15.872Z,8.5740
2023-04-25T09:55:16.396Z,8.4738
2023-04-25T09:56:16.948Z,8.6482
2023-04-25T09:57:17.482Z,8.8105
2023-04-25T09:58:17.963Z,8.6729
2023-04-25T09:59:18.485Z,8.6907
2023-04-25T10:00:18.939Z,8.7507
2023-04-25T10:01:19.585Z,8.7723
2023-04-25T10:02:20.195Z,8.8823
2023-04-25T10:03:20.841Z,9.0859
2023-04-25T10:04:21.945Z,8.6720
2023-04-25T10:05:22.533Z,8.6463
2023-04-25T10:06:23.073Z,8.7604
2023-04-25T10:07:23.598Z,8.8926
2023-04-25T10:08:24.095Z,8.9127
2023-04-25T10:09:24.631Z,8.9128
2023-04-25T10:10:25.165Z,8.4391
2023-04-25T10:11:25.675Z,8.6067
2023-04-25T10:12:26.169Z,8.6969
2023-04-25T10:13:26.633Z,8.7680
2023-04-25T10:14:27.110Z,8.7597
2023-04-25T10:15:27.629Z,8.6122
2023-04-25T10:16:28.250Z,8.5604
2023-04-25T10:17:28.830Z,8.5193
2023-04-25T10:18:29.327Z,8.5803
2023-04-25T10:19:29.841Z,8.6444
2023-04-25T10:20:30.332Z,8.7274
2023-04-25T10:21:30.836Z,8.7764
2023-04-25T10:22:31.316Z,8.6701
2023-04-25T10:23:31.846Z,8.7376
2023-04-25T10:24:32.328Z,8.7792
2023-04-25T10:25:33.035Z,8.7506
2023-04-25T10:26:33.677Z,8.8233
2023-04-25T10:27:34.168Z,8.7570
2023-04-25T10:28:34.640Z,8.7577
2023-04-25T10:29:35.145Z,8.9171
2023-04-25T10:30:35.695Z,9.0483
2023-04-25T10:31:36.229Z,9.3132
2023-04-25T10:32:36.718Z,9.2729
2023-04-25T10:33:37.191Z,9.3848
2023-04-25T10:34:37.667Z,9.1505
2023-04-25T10:35:38.196Z,9.4251
2023-04-25T10:36:38.804Z,9.6376
2023-04-25T10:37:40.715Z,9.6391
2023-04-25T10:38:41.660Z,9.6774
2023-04-25T10:39:42.101Z,9.6353
2023-04-25T10:40:42.721Z,9.4816
2023-04-25T10:41:43.427Z,9.3019
2023-04-25T10:42:43.878Z,9.3442
2023-04-25T10:43:44.418Z,9.3440
2023-04-25T10:44:44.963Z,9.4752
2023-04-25T10:45:45.428Z,9.5530
2023-04-25T10:46:45.957Z,9.6235
2023-04-25T10:47:46.515Z,9.6397
2023-04-25T10:48:47.050Z,9.5588
2023-04-25T10:49:47.559Z,9.0521
2023-04-25T10:50:48.018Z,9.0449
2023-04-25T10:51:55.517Z,9.1175
2023-04-25T10:52:49.485Z,9.0465
2023-04-25T10:53:50.147Z,9.0992
2023-04-25T10:54:50.839Z,9.2339
2023-04-25T10:55:51.358Z,9.2366
2023-04-25T10:56:51.933Z,9.4002
2023-04-25T10:57:52.402Z,9.3576
2023-04-25T10:58:53.955Z,9.4634
2023-04-25T10:59:54.909Z,9.6940
2023-04-25T11:00:57.537Z,9.8510
2023-04-25T11:01:55.826Z,10.0371
2023-04-25T11:02:56.747Z,9.8645
2023-04-25T11:03:57.465Z,9.9976
2023-04-25T11:04:58.271Z,10.1468
2023-04-25T11:05:58.764Z,10.1291
2023-04-25T11:08:07.961Z,9.9486
2023-04-25T11:09:02.935Z,10.0972
2023-04-25T11:10:03.434Z,10.0327
2023-04-25T11:11:03.935Z,10.1328
2023-04-25T11:12:04.479Z,10.3138
2023-04-25T11:13:04.986Z,10.4321
2023-04-25T11:14:05.481Z,10.3732
2023-04-25T11:15:06.004Z,10.6129
2023-04-25T11:16:12.572Z,11.0685
2023-04-25T11:17:07.513Z,11.1390
2023-04-25T11:18:08.843Z,11.1246
2023-04-25T11:19:09.352Z,10.9787
2023-04-25T11:20:09.813Z,11.1132
2023-04-25T11:21:10.293Z,10.8027
2023-04-25T11:22:10.776Z,10.6563
2023-04-25T11:23:11.210Z,10.7503
2023-04-25T11:24:11.720Z,10.8560
2023-04-25T11:25:12.182Z,10.7412
2023-04-25T11:26:12.702Z,11.0311
2023-04-25T11:27:13.190Z,10.6155
2023-04-25T11:28:13.642Z,10.3214
2023-04-25T11:29:14.150Z,10.3339
2023-04-25T11:30:14.568Z,10.3485
2023-04-25T11:31:15.088Z,10.2649
2023-04-25T11:32:15.734Z,10.1349
2023-04-25T11:33:16.311Z,9.9484
2023-04-25T11:34:16.772Z,9.7772
2023-04-25T11:35:17.253Z,9.8980
2023-04-25T11:36:17.747Z,9.7754
2023-04-25T11:37:18.257Z,9.4135
2023-04-25T11:38:18.778Z,8.8070
2023-04-25T11:39:19.262Z,8.8802
2023-04-25T11:40:19.747Z,9.0061
2023-04-25T11:41:20.219Z,9.2510
2023-04-25T11:42:20.918Z,9.1600
2023-04-25T11:43:21.799Z,9.4315
2023-04-25T11:44:22.451Z,9.7245
2023-04-25T11:45:23.104Z,9.7655
2023-04-25T11:46:23.611Z,9.6343
2023-04-25T11:47:24.168Z,10.0101
2023-04-25T11:48:26.361Z,10.0076
2023-04-25T11:49:27.088Z,10.5410
2023-04-25T11:50:27.600Z,10.5297
2023-04-25T11:51:28.098Z,12.0254
2023-04-25T11:52:28.584Z,13.2771
2023-04-25T11:53:28.915Z,13.2279
2023-04-25T11:54:29.322Z,12.3770
2023-04-25T11:55:29.724Z,11.7672
2023-04-25T11:56:30.132Z,11.4504
2023-04-25T11:57:30.532Z,11.2795
2023-04-25T11:58:30.900Z,11.6102
2023-04-25T11:59:31.314Z,11.5519
2023-04-25T12:00:31.668Z,11.3526
2023-04-25T12:01:33.040Z,11.1705
2023-04-25T12:02:33.571Z,10.8911
2023-04-25T12:03:34.555Z,10.7302
2023-04-25T12:04:35.430Z,10.6163
2023-04-25T12:05:36.504Z,10.7839
2023-04-25T12:06:37.510Z,10.7935
2023-04-25T12:07:37.996Z,10.7186
2023-04-25T12:08:38.457Z,10.7461
2023-04-25T12:09:38.915Z,11.2394
2023-04-25T12:10:39.341Z,11.4497
2023-04-25T12:11:40.912Z,12.1501
2023-04-25T12:12:41.535Z,11.6127
2023-04-25T12:13:42.982Z,11.0103
2023-04-25T12:14:43.392Z,11.2243
2023-04-25T12:15:43.968Z,11.4088
2023-04-25T12:16:44.516Z,10.9395
2023-04-25T12:17:44.936Z,10.5960
2023-04-25T12:18:45.346Z,10.7085
2023-04-25T12:19:45.780Z,10.8584
2023-04-25T12:20:46.225Z,10.1395
2023-04-25T12:21:57.368Z,9.8630
2023-04-25T12:22:47.647Z,9.6559
2023-04-25T12:23:48.117Z,9.3749
2023-04-25T12:24:48.672Z,9.0875
2023-04-25T12:25:49.150Z,8.8206
2023-04-25T12:26:49.767Z,9.0038
2023-04-25T12:27:50.224Z,9.1861
2023-04-25T12:28:50.816Z,9.1807
2023-04-25T12:29:51.584Z,8.4866
2023-04-25T12:30:52.237Z,8.0721
2023-04-25T12:31:52.891Z,7.9429
2023-04-25T12:32:53.501Z,7.8700
2023-04-25T12:33:53.921Z,8.0819
2023-04-25T12:34:54.423Z,8.5791